Terminal Aerodrome Forecast
Issued by NWS Wilmington, OH

Home | Current Version | Previous Version | Text Only | Print | Product List | Glossary On
Versions: 1 2 3 4 5 6 7 8 9 10 11 12 13 14 15 16 17
731
FTUS41 KILN 281414 AAA
TAFCMH
TAF AMD
KCMH 281414Z 2814/2912 27004KT P6SM -RA BKN050 OVC090
     FM281900 18005KT P6SM VCSH BKN040 BKN150
     FM290300 VRB04KT P6SM BKN090
     FM290800 VRB02KT 3SM BR BKN150=

USA.gov is the U.S. government's official web portal to all federal, state and local government web resources and services.